sensor_id;sensor_type;location;lat;lon;timestamp;pressure;altitude;pressure_sealevel;temperature;humidity
46598;BME280;32318;48.858;8.252;2023-03-03T00:03:42;100594.50;;;2.93;72.63
46598;BME280;32318;48.858;8.252;2023-03-03T00:11:43;100586.16;;;2.87;72.17
46598;BME280;32318;48.858;8.252;2023-03-03T00:19:43;100589.31;;;2.79;72.25
46598;BME280;32318;48.858;8.252;2023-03-03T00:27:46;100585.97;;;2.77;71.62
46598;BME280;32318;48.858;8.252;2023-03-03T00:35:46;100583.84;;;2.69;73.38
46598;BME280;32318;48.858;8.252;2023-03-03T00:43:47;100586.91;;;2.63;73.65
46598;BME280;32318;48.858;8.252;2023-03-03T00:51:47;100596.06;;;2.57;73.78
46598;BME280;32318;48.858;8.252;2023-03-03T00:59:47;100596.06;;;2.57;73.89
46598;BME280;32318;48.858;8.252;2023-03-03T01:07:47;100593.75;;;2.53;74.01
46598;BME280;32318;48.858;8.252;2023-03-03T01:15:48;100587.72;;;2.50;74.05
46598;BME280;32318;48.858;8.252;2023-03-03T01:23:49;100582.66;;;2.47;74.81
46598;BME280;32318;48.858;8.252;2023-03-03T01:31:49;100575.91;;;2.43;74.39
46598;BME280;32318;48.858;8.252;2023-03-03T01:39:53;100582.44;;;2.38;74.87
46598;BME280;32318;48.858;8.252;2023-03-03T01:48:04;100588.88;;;2.33;74.93
46598;BME280;32318;48.858;8.252;2023-03-03T01:56:06;100568.19;;;2.27;74.56
46598;BME280;32318;48.858;8.252;2023-03-03T02:04:07;100563.31;;;2.21;74.90
46598;BME280;32318;48.858;8.252;2023-03-03T02:12:11;100555.84;;;2.15;75.53
46598;BME280;32318;48.858;8.252;2023-03-03T02:20:53;100558.84;;;2.09;75.30
46598;BME280;32318;48.858;8.252;2023-03-03T02:28:46;100556.44;;;2.06;74.73
46598;BME280;32318;48.858;8.252;2023-03-03T02:36:46;100565.72;;;1.98;74.25
46598;BME280;32318;48.858;8.252;2023-03-03T02:44:46;100569.47;;;1.94;74.99
46598;BME280;32318;48.858;8.252;2023-03-03T02:52:47;100560.75;;;1.94;75.07
46598;BME280;32318;48.858;8.252;2023-03-03T03:00:47;100578.19;;;1.82;73.91
46598;BME280;32318;48.858;8.252;2023-03-03T03:08:47;100584.25;;;1.55;75.01
46598;BME280;32318;48.858;8.252;2023-03-03T03:16:47;100582.56;;;1.54;75.07
46598;BME280;32318;48.858;8.252;2023-03-03T03:24:48;100580.78;;;1.54;74.61
46598;BME280;32318;48.858;8.252;2023-03-03T03:32:48;100585.84;;;1.58;73.97
46598;BME280;32318;48.858;8.252;2023-03-03T03:40:48;100602.13;;;1.50;74.29
46598;BME280;32318;48.858;8.252;2023-03-03T03:48:49;100602.63;;;1.42;74.34
46598;BME280;32318;48.858;8.252;2023-03-03T03:56:49;100603.09;;;1.34;74.54
46598;BME280;32318;48.858;8.252;2023-03-03T04:04:50;100595.75;;;1.25;74.62
46598;BME280;32318;48.858;8.252;2023-03-03T04:12:50;100596.97;;;1.19;74.82
46598;BME280;32318;48.858;8.252;2023-03-03T04:20:50;100596.13;;;1.04;74.67
46598;BME280;32318;48.858;8.252;2023-03-03T04:28:51;100598.88;;;1.03;74.33
46598;BME280;32318;48.858;8.252;2023-03-03T04:36:52;100595.56;;;0.99;74.52
46598;BME280;32318;48.858;8.252;2023-03-03T04:44:52;100612.00;;;1.03;73.62
46598;BME280;32318;48.858;8.252;2023-03-03T04:52:52;100615.50;;;1.03;74.04
46598;BME280;32318;48.858;8.252;2023-03-03T05:00:55;100613.16;;;1.13;75.12
46598;BME280;32318;48.858;8.252;2023-03-03T05:08:55;100611.00;;;1.20;75.31
46598;BME280;32318;48.858;8.252;2023-03-03T05:16:56;100611.16;;;1.31;75.52
46598;BME280;32318;48.858;8.252;2023-03-03T05:24:56;100612.50;;;1.38;75.42
46598;BME280;32318;48.858;8.252;2023-03-03T05:32:56;100611.22;;;1.44;75.31
46598;BME280;32318;48.858;8.252;2023-03-03T05:40:58;100622.63;;;1.45;75.07
46598;BME280;32318;48.858;8.252;2023-03-03T05:48:58;100635.84;;;1.43;75.69
46598;BME280;32318;48.858;8.252;2023-03-03T05:56:59;100646.38;;;1.43;75.42
46598;BME280;32318;48.858;8.252;2023-03-03T06:04:59;100644.50;;;1.45;75.93
46598;BME280;32318;48.858;8.252;2023-03-03T06:12:59;100650.63;;;1.46;75.99
46598;BME280;32318;48.858;8.252;2023-03-03T06:21:01;100672.13;;;1.52;74.24
46598;BME280;32318;48.858;8.252;2023-03-03T06:29:01;100672.22;;;1.51;72.26
46598;BME280;32318;48.858;8.252;2023-03-03T06:37:01;100680.88;;;1.38;72.49
46598;BME280;32318;48.858;8.252;2023-03-03T06:45:02;100690.06;;;1.31;72.66
46598;BME280;32318;48.858;8.252;2023-03-03T06:53:14;100699.88;;;1.29;74.63
46598;BME280;32318;48.858;8.252;2023-03-03T07:01:16;100707.19;;;1.38;74.33
46598;BME280;32318;48.858;8.252;2023-03-03T07:09:22;100709.06;;;1.36;74.41
46598;BME280;32318;48.858;8.252;2023-03-03T07:17:24;100719.59;;;1.51;73.20
46598;BME280;32318;48.858;8.252;2023-03-03T07:33:34;100724.69;;;1.54;74.87
46598;BME280;32318;48.858;8.252;2023-03-03T07:41:37;100722.03;;;1.68;73.65
46598;BME280;32318;48.858;8.252;2023-03-03T07:49:37;100739.41;;;1.71;74.41
46598;BME280;32318;48.858;8.252;2023-03-03T07:57:38;100739.72;;;1.81;74.13
46598;BME280;32318;48.858;8.252;2023-03-03T08:05:40;100755.97;;;1.87;74.24
46598;BME280;32318;48.858;8.252;2023-03-03T08:13:41;100761.88;;;1.91;74.53
46598;BME280;32318;48.858;8.252;2023-03-03T08:21:42;100770.81;;;2.03;74.67
46598;BME280;32318;48.858;8.252;2023-03-03T08:29:42;100760.56;;;2.13;74.92
46598;BME280;32318;48.858;8.252;2023-03-03T08:37:43;100754.69;;;2.22;74.52
46598;BME280;32318;48.858;8.252;2023-03-03T08:45:44;100747.16;;;2.30;74.54
46598;BME280;32318;48.858;8.252;2023-03-03T08:53:45;100754.72;;;2.49;74.46
46598;BME280;32318;48.858;8.252;2023-03-03T09:01:46;100756.88;;;2.57;73.42
46598;BME280;32318;48.858;8.252;2023-03-03T09:09:46;100769.22;;;2.70;73.16
46598;BME280;32318;48.858;8.252;2023-03-03T09:17:47;100768.94;;;2.74;73.67
46598;BME280;32318;48.858;8.252;2023-03-03T09:25:48;100788.47;;;2.85;72.75
46598;BME280;32318;48.858;8.252;2023-03-03T09:33:48;100796.91;;;2.77;73.29
46598;BME280;32318;48.858;8.252;2023-03-03T09:42:25;100797.56;;;2.80;72.46
46598;BME280;32318;48.858;8.252;2023-03-03T10:24:56;100800.09;;;3.48;71.11
46598;BME280;32318;48.858;8.252;2023-03-03T10:41:48;100789.34;;;3.77;69.25
46598;BME280;32318;48.858;8.252;2023-03-03T11:23:52;100775.50;;;5.79;62.11
46598;BME280;32318;48.858;8.252;2023-03-03T11:31:56;100775.38;;;6.26;60.09
46598;BME280;32318;48.858;8.252;2023-03-03T11:40:08;100772.19;;;6.55;59.34
46598;BME280;32318;48.858;8.252;2023-03-03T11:56:22;100746.22;;;6.70;58.13
46598;BME280;32318;48.858;8.252;2023-03-03T12:04:43;100729.41;;;6.81;57.48
46598;BME280;32318;48.858;8.252;2023-03-03T12:13:16;100717.97;;;7.01;57.28
46598;BME280;32318;48.858;8.252;2023-03-03T12:30:13;100715.88;;;7.47;54.71
46598;BME280;32318;48.858;8.252;2023-03-03T12:46:53;100708.00;;;7.67;54.32
46598;BME280;32318;48.858;8.252;2023-03-03T12:55:09;100704.88;;;7.62;55.18
46598;BME280;32318;48.858;8.252;2023-03-03T13:03:28;100700.22;;;7.85;53.74
46598;BME280;32318;48.858;8.252;2023-03-03T13:11:48;100696.88;;;7.93;53.82
46598;BME280;32318;48.858;8.252;2023-03-03T13:19:58;100693.69;;;8.09;53.25
46598;BME280;32318;48.858;8.252;2023-03-03T13:28:06;100693.59;;;8.20;53.24
46598;BME280;32318;48.858;8.252;2023-03-03T13:36:12;100691.06;;;8.19;53.66
46598;BME280;32318;48.858;8.252;2023-03-03T13:44:29;100689.81;;;8.32;53.01
46598;BME280;32318;48.858;8.252;2023-03-03T13:52:32;100686.16;;;8.24;53.42
46598;BME280;32318;48.858;8.252;2023-03-03T14:00:51;100679.88;;;8.35;53.24
46598;BME280;32318;48.858;8.252;2023-03-03T14:09:21;100670.66;;;8.58;51.82
46598;BME280;32318;48.858;8.252;2023-03-03T14:17:35;100669.28;;;8.54;52.82
46598;BME280;32318;48.858;8.252;2023-03-03T14:25:57;100670.66;;;8.48;53.55
46598;BME280;32318;48.858;8.252;2023-03-03T14:42:55;100662.53;;;8.50;53.64
46598;BME280;32318;48.858;8.252;2023-03-03T14:50:38;100662.69;;;8.48;54.16
46598;BME280;32318;48.858;8.252;2023-03-03T14:58:42;100662.56;;;8.60;53.71
46598;BME280;32318;48.858;8.252;2023-03-03T15:06:53;100659.03;;;8.79;52.21
46598;BME280;32318;48.858;8.252;2023-03-03T15:31:51;100628.34;;;8.65;53.38
46598;BME280;32318;48.858;8.252;2023-03-03T15:40:19;100635.78;;;8.61;53.68
46598;BME280;32318;48.858;8.252;2023-03-03T15:48:57;100633.84;;;8.54;53.52
46598;BME280;32318;48.858;8.252;2023-03-03T15:57:09;100635.94;;;8.60;53.08
46598;BME280;32318;48.858;8.252;2023-03-03T16:05:22;100641.78;;;8.44;53.99
46598;BME280;32318;48.858;8.252;2023-03-03T16:30:26;100639.38;;;8.01;55.52
46598;BME280;32318;48.858;8.252;2023-03-03T16:46:40;100674.69;;;7.73;56.70
46598;BME280;32318;48.858;8.252;2023-03-03T16:54:48;100680.22;;;7.50;57.06
46598;BME280;32318;48.858;8.252;2023-03-03T17:52:39;100762.19;;;6.58;60.56
46598;BME280;32318;48.858;8.252;2023-03-03T18:00:54;100771.97;;;6.47;60.70
46598;BME280;32318;48.858;8.252;2023-03-03T18:09:12;100781.88;;;6.44;60.79
46598;BME280;32318;48.858;8.252;2023-03-03T18:25:54;100796.25;;;6.19;61.42
46598;BME280;32318;48.858;8.252;2023-03-03T18:34:25;100806.63;;;6.00;61.24
46598;BME280;32318;48.858;8.252;2023-03-03T18:42:40;100812.84;;;5.87;62.39
46598;BME280;32318;48.858;8.252;2023-03-03T18:50:46;100814.88;;;5.84;62.24
46598;BME280;32318;48.858;8.252;2023-03-03T18:58:49;100822.22;;;5.57;62.53
46598;BME280;32318;48.858;8.252;2023-03-03T19:06:56;100831.34;;;5.53;62.55
46598;BME280;32318;48.858;8.252;2023-03-03T19:15:09;100844.53;;;5.30;62.72
46598;BME280;32318;48.858;8.252;2023-03-03T19:23:55;100838.56;;;5.15;63.75
46598;BME280;32318;48.858;8.252;2023-03-03T19:32:12;100840.72;;;5.10;63.92
46598;BME280;32318;48.858;8.252;2023-03-03T19:40:49;100842.00;;;5.05;63.67
46598;BME280;32318;48.858;8.252;2023-03-03T19:57:15;100859.63;;;4.93;64.11
46598;BME280;32318;48.858;8.252;2023-03-03T20:05:26;100860.69;;;4.90;63.60
46598;BME280;32318;48.858;8.252;2023-03-03T20:13:56;100858.63;;;4.82;64.19
46598;BME280;32318;48.858;8.252;2023-03-03T20:22:02;100872.38;;;4.75;64.61
46598;BME280;32318;48.858;8.252;2023-03-03T20:30:09;100878.44;;;4.64;65.04
46598;BME280;32318;48.858;8.252;2023-03-03T20:47:21;100897.19;;;4.48;64.67
46598;BME280;32318;48.858;8.252;2023-03-03T21:03:36;100905.91;;;4.24;64.71
46598;BME280;32318;48.858;8.252;2023-03-03T21:19:37;100902.25;;;3.60;64.87
46598;BME280;32318;48.858;8.252;2023-03-03T21:27:37;100911.56;;;3.53;65.90
46598;BME280;32318;48.858;8.252;2023-03-03T21:35:56;100911.31;;;3.56;67.12
46598;BME280;32318;48.858;8.252;2023-03-03T21:43:56;100926.63;;;3.51;65.32
46598;BME280;32318;48.858;8.252;2023-03-03T21:51:57;100922.72;;;3.44;65.28
46598;BME280;32318;48.858;8.252;2023-03-03T21:59:57;100922.06;;;3.40;65.42
46598;BME280;32318;48.858;8.252;2023-03-03T22:07:58;100918.00;;;3.22;65.64
46598;BME280;32318;48.858;8.252;2023-03-03T22:15:58;100919.69;;;3.23;65.90
46598;BME280;32318;48.858;8.252;2023-03-03T22:23:58;100929.19;;;3.25;65.29
46598;BME280;32318;48.858;8.252;2023-03-03T22:31:58;100928.91;;;3.03;66.65
46598;BME280;32318;48.858;8.252;2023-03-03T22:39:59;100935.00;;;3.03;65.91
46598;BME280;32318;48.858;8.252;2023-03-03T22:48:00;100940.88;;;2.94;65.73
46598;BME280;32318;48.858;8.252;2023-03-03T22:56:00;100933.44;;;2.86;65.72
46598;BME280;32318;48.858;8.252;2023-03-03T23:04:01;100938.72;;;2.72;66.75
46598;BME280;32318;48.858;8.252;2023-03-03T23:12:01;100936.31;;;2.69;66.05
46598;BME280;32318;48.858;8.252;2023-03-03T23:20:01;100939.72;;;2.42;65.51
46598;BME280;32318;48.858;8.252;2023-03-03T23:28:02;100949.94;;;2.03;66.00
46598;BME280;32318;48.858;8.252;2023-03-03T23:36:02;100953.72;;;1.83;67.11
46598;BME280;32318;48.858;8.252;2023-03-03T23:44:03;100946.94;;;1.79;67.83
46598;BME280;32318;48.858;8.252;2023-03-03T23:52:03;100949.19;;;1.70;67.71
